createdAt,value
2018-08-10T00:00:04.764Z,29.4
2018-08-10T00:00:54.824Z,29.4
2018-08-10T00:01:44.891Z,29.3
2018-08-10T00:02:34.633Z,29.4
2018-08-10T00:03:24.701Z,29.3
2018-08-10T00:04:15.044Z,29.4
2018-08-10T00:05:05.186Z,29.3
2018-08-10T00:05:54.969Z,29.3
2018-08-10T00:06:45.275Z,29.3
2018-08-10T00:07:35.348Z,29.4
2018-08-10T00:08:24.325Z,29.4
2018-08-10T00:09:15.498Z,29.4
2018-08-10T00:10:05.509Z,29.3
2018-08-10T00:10:55.025Z,29.3
2018-08-10T00:11:44.543Z,29.3
2018-08-10T00:12:35.415Z,29.3
2018-08-10T00:13:25.468Z,29.3
2018-08-10T00:14:15.828Z,29.3
2018-08-10T00:15:05.670Z,29.3
2018-08-10T00:15:55.782Z,29.3
2018-08-10T00:16:45.723Z,29.3
2018-08-10T00:17:35.801Z,29.3
2018-08-10T00:18:25.599Z,29.3
2018-08-10T00:37:25.649Z,29.2
2018-08-10T00:38:15.439Z,29.3
2018-08-10T00:39:05.781Z,29.2
2018-08-10T00:39:55.851Z,29.3
2018-08-10T00:40:45.896Z,29.3
2018-08-10T00:41:35.394Z,29.3
2018-08-10T00:42:26.229Z,29.3
2018-08-10T00:43:16.097Z,29.3
2018-08-10T00:44:06.200Z,29.2
2018-08-10T00:44:56.347Z,29.2
2018-08-10T00:45:46.279Z,29.3
2018-08-10T00:46:36.376Z,29.3
2018-08-10T00:47:25.886Z,29.3
2018-08-10T00:48:15.978Z,29.3
2018-08-10T00:49:05.744Z,29.2
2018-08-10T00:49:56.498Z,29.3
2018-08-10T00:50:45.874Z,29.3
2018-08-10T00:51:36.754Z,29.3
2018-08-10T00:52:27.057Z,29.3
2018-08-10T00:53:16.628Z,29.2
2018-08-10T00:54:06.701Z,29.3
2018-08-10T00:54:56.789Z,29.2
2018-08-10T00:55:47.096Z,29.2
2018-08-10T00:56:36.595Z,29.3
2018-08-10T00:57:26.969Z,29.3
2018-08-10T00:58:17.484Z,29.3
2018-08-10T00:59:07.101Z,29.3
2018-08-10T00:59:57.435Z,29.2
2018-08-10T01:00:46.659Z,29.3
2018-08-10T01:01:36.999Z,29.3
2018-08-10T01:02:26.866Z,29.3
2018-08-10T01:03:17.665Z,29.2
2018-08-10T01:04:06.999Z,29.3
2018-08-10T01:04:57.360Z,29.3
2018-08-10T01:05:47.111Z,29.2
2018-08-10T01:06:37.426Z,29.2
2018-08-10T01:07:26.858Z,29.2
2018-08-10T01:08:16.778Z,29.3
2018-08-10T01:09:07.545Z,29.2
2018-08-10T01:09:57.962Z,29.2
2018-08-10T01:10:47.958Z,29.2
2018-08-10T01:11:38.014Z,29.1
2018-08-10T01:12:28.323Z,29.2
2018-08-10T01:13:18.716Z,29.2
2018-08-10T01:14:08.714Z,29.2
2018-08-10T01:14:58.289Z,29.2
2018-08-10T01:15:48.390Z,29.2
2018-08-10T01:16:38.864Z,29.1
2018-08-10T01:17:28.694Z,29.2
2018-08-10T01:18:18.539Z,29.2
2018-08-10T01:19:10.020Z,29.1
2018-08-10T01:19:58.954Z,29.2
2018-08-10T01:20:49.001Z,29.2
2018-08-10T01:21:38.762Z,29.3
2018-08-10T01:22:28.899Z,29.2
2018-08-10T01:23:19.209Z,29.3
2018-08-10T01:24:09.338Z,29.3
2018-08-10T01:24:59.076Z,29.2
2018-08-10T01:25:49.536Z,29.3
2018-08-10T01:26:39.461Z,29.3
2018-08-10T01:27:29.716Z,29.3
2018-08-10T01:28:19.153Z,29.1
2018-08-10T01:29:09.148Z,29.2
2018-08-10T01:29:59.676Z,29.3
2018-08-10T01:30:49.491Z,29.2
2018-08-10T01:31:39.593Z,29.2
2018-08-10T01:32:29.678Z,29.2
2018-08-10T01:33:19.466Z,29.2
2018-08-10T01:34:09.788Z,29.2
2018-08-10T01:35:00.253Z,29.3
2018-08-10T01:35:49.650Z,29.1
2018-08-10T01:36:39.961Z,29.2
2018-08-10T01:37:29.820Z,29.2
2018-08-10T01:38:20.601Z,29.2
2018-08-10T01:39:10.471Z,29.2
2018-08-10T01:40:14.794Z,29.2
2018-08-10T01:41:05.399Z,29.2
2018-08-10T01:41:40.383Z,29.2
2018-08-10T01:42:30.409Z,29.2
2018-08-10T01:43:20.191Z,29.2
2018-08-10T01:44:10.519Z,29.2
2018-08-10T01:45:00.865Z,29.2
2018-08-10T01:45:50.905Z,29.2
2018-08-10T01:46:54.551Z,29.1
2018-08-10T01:47:30.750Z,29.2
2018-08-10T01:48:20.817Z,29.2
2018-08-10T01:49:11.154Z,29.1
2018-08-10T01:50:01.248Z,29.2
2018-08-10T01:50:51.302Z,29.2
2018-08-10T01:51:41.339Z,29.2
2018-08-10T01:52:31.191Z,29.2
2018-08-10T01:53:21.750Z,29.1
2018-08-10T01:54:11.003Z,29.2
2018-08-10T01:55:01.106Z,29.2
2018-08-10T01:56:06.424Z,29.2
2018-08-10T01:56:41.745Z,29.1
2018-08-10T01:57:31.537Z,29.2
2018-08-10T01:58:21.920Z,29.1
2018-08-10T01:59:11.489Z,29.2
2018-08-10T02:00:01.007Z,29.2
2018-08-10T02:00:51.010Z,29.1
2018-08-10T02:01:41.905Z,29.2
2018-08-10T02:02:31.690Z,29.2
2018-08-10T02:03:21.486Z,29.1
2018-08-10T02:04:12.091Z,29.1
2018-08-10T02:05:02.497Z,29.1
2018-08-10T02:05:52.564Z,29.2
2018-08-10T02:06:42.613Z,29.1
2018-08-10T02:07:32.375Z,29.1
2018-08-10T02:08:22.134Z,29.1
2018-08-10T02:09:12.192Z,29.1
2018-08-10T02:10:02.824Z,29.1
2018-08-10T02:10:52.918Z,29.1
2018-08-10T02:11:42.974Z,29.1
2018-08-10T02:12:32.559Z,29.1
2018-08-10T02:13:22.507Z,29.1
2018-08-10T02:14:13.189Z,29.2
2018-08-10T02:15:03.422Z,29.1
2018-08-10T02:15:53.370Z,29.1
2018-08-10T02:16:43.068Z,29.2
2018-08-10T02:17:32.828Z,29.1
2018-08-10T02:18:23.444Z,29.1
2018-08-10T02:19:13.647Z,29.1
2018-08-10T02:20:03.568Z,29.1
2018-08-10T02:20:53.714Z,29.1
2018-08-10T02:21:43.675Z,29.1
2018-08-10T02:22:33.822Z,29.1
2018-08-10T02:23:23.804Z,29.1
2018-08-10T02:24:13.870Z,29.1
2018-08-10T02:25:18.635Z,29.1
2018-08-10T02:25:53.811Z,29.1
2018-08-10T02:26:44.067Z,29.1
2018-08-10T02:27:33.958Z,29.1
2018-08-10T02:28:23.988Z,29.1
2018-08-10T02:29:13.773Z,29.1
2018-08-10T02:30:04.357Z,29.1
2018-08-10T02:30:54.071Z,29.1
2018-08-10T02:31:44.534Z,29.1
2018-08-10T02:32:34.317Z,29.1
2018-08-10T02:33:24.581Z,29.1
2018-08-10T02:34:14.098Z,29.1
2018-08-10T02:35:03.935Z,29.1
2018-08-10T02:35:54.625Z,29.1
2018-08-10T02:36:44.287Z,29.1
2018-08-10T02:37:34.709Z,29.1
2018-08-10T02:38:24.755Z,29.1
2018-08-10T02:39:14.817Z,29.1
2018-08-10T02:40:04.642Z,29.1
2018-08-10T02:40:54.400Z,29.1
2018-08-10T02:41:44.559Z,29.1
2018-08-10T02:42:35.431Z,29.1
2018-08-10T02:43:24.676Z,29.1
2018-08-10T02:44:14.729Z,29.1
2018-08-10T02:45:05.511Z,29.1
2018-08-10T02:45:54.554Z,29.1
2018-08-10T02:46:45.080Z,29.1
2018-08-10T02:47:35.249Z,29.1
2018-08-10T02:48:24.766Z,29.1
2018-08-10T02:49:15.392Z,29.1
2018-08-10T02:50:55.223Z,29.1
2018-08-10T02:51:44.843Z,29.1
2018-08-10T02:52:34.863Z,29.1
2018-08-10T02:53:25.227Z,29.1
2018-08-10T02:54:15.186Z,29.1
2018-08-10T02:55:05.866Z,29.1
2018-08-10T02:55:55.914Z,29.1
2018-08-10T02:56:46.127Z,29.1
2018-08-10T02:57:36.468Z,29.1
2018-08-10T02:58:26.760Z,29.1
2018-08-10T02:59:16.576Z,29.1
2018-08-10T03:00:05.594Z,29.1
2018-08-10T03:00:55.632Z,29.1
2018-08-10T03:01:46.648Z,29.1
2018-08-10T03:02:36.103Z,29.1
2018-08-10T03:03:26.709Z,29.1
2018-08-10T03:04:16.734Z,29.1
2018-08-10T03:05:06.281Z,29.1
2018-08-10T03:05:56.592Z,29.1
2018-08-10T03:06:46.956Z,29.1
2018-08-10T03:07:37.263Z,29.1
2018-08-10T03:08:26.772Z,29.1
2018-08-10T03:09:16.860Z,29.1
2018-08-10T03:10:07.412Z,29.1
2018-08-10T03:10:57.019Z,29.1
2018-08-10T03:12:01.716Z,29.1
2018-08-10T03:12:37.642Z,29.1
2018-08-10T03:13:27.226Z,29.1
2018-08-10T03:15:07.862Z,29.1
2018-08-10T03:16:12.660Z,29.1
2018-08-10T03:16:47.583Z,29.1
2018-08-10T03:17:37.802Z,29.1
2018-08-10T03:18:27.310Z,29.1
2018-08-10T03:19:18.213Z,29.1
2018-08-10T03:20:08.262Z,29.1
2018-08-10T03:20:57.808Z,29.1
2018-08-10T03:21:48.540Z,29.1
2018-08-10T03:22:38.032Z,29.1
2018-08-10T03:23:28.258Z,29.1
2018-08-10T03:24:18.307Z,29.1
2018-08-10T03:25:08.205Z,29.1
2018-08-10T03:25:58.679Z,29.1
2018-08-10T03:26:48.122Z,29.1
2018-08-10T03:27:38.121Z,29.1
2018-08-10T03:28:28.381Z,29.1
2018-08-10T03:29:18.224Z,29.1
2018-08-10T03:30:08.850Z,29.1
2018-08-10T03:30:58.056Z,29.1
2018-08-10T03:31:48.179Z,29.1
2018-08-10T03:32:38.975Z,29.1
2018-08-10T03:33:29.240Z,29.1
2018-08-10T03:34:18.766Z,29.1
2018-08-10T03:35:09.443Z,29.1
2018-08-10T03:35:59.434Z,29.1
2018-08-10T03:36:49.541Z,29.1
2018-08-10T03:37:39.195Z,29.1
2018-08-10T03:38:29.652Z,29.1
2018-08-10T03:39:18.690Z,29.1
2018-08-10T03:40:09.285Z,29.1
2018-08-10T03:40:58.821Z,29.1
2018-08-10T03:41:49.193Z,29.1
2018-08-10T03:42:39.220Z,29.1
2018-08-10T03:43:29.565Z,29.1
2018-08-10T03:44:19.504Z,29.1
2018-08-10T03:45:09.614Z,29.1
2018-08-10T03:45:59.976Z,29.1
2018-08-10T03:46:50.442Z,29.1
2018-08-10T03:47:40.205Z,29.1
2018-08-10T03:48:29.584Z,29.1
2018-08-10T03:49:19.662Z,29.1
2018-08-10T03:50:09.543Z,29.1
2018-08-10T03:50:59.597Z,29
2018-08-10T03:51:49.938Z,29.1
2018-08-10T03:52:54.646Z,29
2018-08-10T03:53:45.495Z,29.1
2018-08-10T03:54:20.673Z,29.1
2018-08-10T03:55:10.405Z,29.1
2018-08-10T03:56:00.988Z,29.1
2018-08-10T03:56:50.469Z,29
2018-08-10T03:57:40.376Z,29.1
2018-08-10T03:58:30.159Z,29.1
2018-08-10T03:59:20.186Z,29
2018-08-10T04:00:10.951Z,29.1
2018-08-10T04:01:00.896Z,29
2018-08-10T04:01:50.735Z,29.1
2018-08-10T04:02:40.808Z,29.1
2018-08-10T04:03:30.570Z,29
2018-08-10T04:04:20.886Z,29.1
2018-08-10T04:05:11.153Z,29
2018-08-10T04:06:01.820Z,29
2018-08-10T04:06:51.332Z,29
2018-08-10T04:07:41.927Z,29.1
2018-08-10T04:08:31.720Z,29
2018-08-10T04:09:22.063Z,29
2018-08-10T04:10:11.333Z,29
2018-08-10T04:11:01.629Z,29
2018-08-10T04:11:52.283Z,29
2018-08-10T04:12:41.590Z,29
2018-08-10T04:13:46.496Z,29
2018-08-10T04:14:22.106Z,29
2018-08-10T04:15:12.062Z,29
2018-08-10T04:16:01.994Z,29
2018-08-10T04:16:52.285Z,29
2018-08-10T04:17:42.455Z,29
2018-08-10T04:18:32.194Z,29
2018-08-10T04:19:22.591Z,29
2018-08-10T04:20:12.035Z,29
2018-08-10T04:21:03.018Z,29
2018-08-10T04:21:52.417Z,29
2018-08-10T04:22:42.899Z,29
2018-08-10T04:23:33.155Z,29
2018-08-10T04:24:22.690Z,29
2018-08-10T04:25:12.785Z,29
2018-08-10T04:26:02.837Z,29
2018-08-10T04:26:52.883Z,29
2018-08-10T04:27:43.247Z,29
2018-08-10T04:28:33.010Z,29
2018-08-10T04:29:23.074Z,29
2018-08-10T04:30:12.467Z,29
2018-08-10T05:06:58.581Z,29
2018-08-10T05:07:48.069Z,28.9
2018-08-10T05:08:38.712Z,29
2018-08-10T05:09:29.072Z,29
2018-08-10T05:10:18.515Z,29
2018-08-10T05:11:08.080Z,29
2018-08-10T05:11:59.272Z,29
2018-08-10T05:12:49.063Z,29
2018-08-10T05:13:38.771Z,29
2018-08-10T05:14:29.146Z,28.9
2018-08-10T05:15:18.905Z,29
2018-08-10T05:16:09.266Z,29
2018-08-10T05:16:59.332Z,29
2018-08-10T05:17:47.955Z,29
2018-08-10T05:18:39.787Z,29
2018-08-10T05:19:29.505Z,28.9
2018-08-10T05:20:19.879Z,29
2018-08-10T05:21:09.929Z,29
2018-08-10T05:21:59.707Z,29
2018-08-10T05:22:49.784Z,29
2018-08-10T05:23:39.549Z,29
2018-08-10T05:24:29.667Z,28.9
2018-08-10T05:25:19.392Z,29
2018-08-10T05:26:10.056Z,29
2018-08-10T05:26:59.263Z,29
2018-08-10T05:27:50.466Z,29
2018-08-10T05:28:40.519Z,29
2018-08-10T05:29:30.299Z,29
2018-08-10T05:30:20.396Z,29
2018-08-10T05:31:10.140Z,29
2018-08-10T05:32:00.809Z,29
2018-08-10T05:32:50.552Z,29
2018-08-10T05:33:40.898Z,29
2018-08-10T05:34:29.827Z,29
2018-08-10T05:35:20.435Z,29
2018-08-10T05:36:10.071Z,29
2018-08-10T05:37:00.572Z,29
2018-08-10T05:37:50.974Z,29
2018-08-10T05:38:41.285Z,29
2018-08-10T05:39:29.941Z,29
2018-08-10T05:40:20.264Z,29
2018-08-10T05:41:10.903Z,29
2018-08-10T05:42:01.531Z,29
2018-08-10T05:42:51.065Z,29
2018-08-10T05:43:40.561Z,29
2018-08-10T05:44:31.169Z,29
2018-08-10T05:45:20.075Z,29
2018-08-10T05:46:11.325Z,29
2018-08-10T05:47:03.244Z,29
2018-08-10T05:47:50.647Z,32.4
2018-08-10T05:48:41.811Z,36.3
2018-08-10T05:49:31.258Z,37.8
2018-08-10T05:50:21.612Z,39.5
2018-08-10T05:51:12.035Z,40.3
2018-08-10T05:52:02.133Z,40.6
2018-08-10T05:52:52.459Z,40.5
2018-08-10T05:53:41.902Z,40.4
2018-08-10T05:54:32.496Z,40.1
2018-08-10T05:55:22.026Z,39.7
2018-08-10T05:56:12.362Z,39.3
2018-08-10T05:57:02.179Z,38.8
2018-08-10T05:57:51.929Z,38.3
2018-08-10T05:58:42.325Z,37.8
2018-08-10T05:59:32.336Z,37.3
2018-08-10T06:00:22.986Z,36.8
2018-08-10T06:01:12.761Z,36.3
2018-08-10T06:02:03.084Z,34.9
2018-08-10T06:02:53.171Z,33.9
2018-08-10T06:03:44.107Z,34.3
2018-08-10T06:04:33.026Z,35.1
2018-08-10T06:05:22.782Z,35.6
2018-08-10T06:06:13.438Z,35.8
2018-08-10T06:07:03.194Z,35.9
2018-08-10T06:07:53.263Z,35.9
2018-08-10T06:08:43.072Z,35.8
2018-08-10T06:09:33.680Z,35.8
2018-08-10T06:10:23.774Z,35.8
2018-08-10T06:11:13.234Z,35.9
2018-08-10T06:12:03.866Z,36.1
2018-08-10T06:12:53.949Z,36.2
2018-08-10T06:13:43.980Z,36.3
2018-08-10T06:14:33.764Z,36.4
2018-08-10T06:15:24.327Z,36.5
2018-08-10T06:16:13.623Z,36.6
2018-08-10T06:17:03.420Z,36.7
2018-08-10T06:17:54.045Z,36.8
2018-08-10T06:18:44.085Z,36.9
2018-08-10T06:19:35.691Z,37.1
2018-08-10T06:20:24.220Z,37.2
2018-08-10T06:21:14.027Z,37.3
2018-08-10T06:22:04.119Z,37.4
2018-08-10T06:22:54.930Z,37.5
2018-08-10T06:23:43.649Z,37.6
2018-08-10T06:24:33.738Z,37.8
2018-08-10T06:25:24.126Z,37.9
2018-08-10T06:26:14.981Z,38
2018-08-10T06:27:04.468Z,38.1
2018-08-10T06:27:56.577Z,38.3
2018-08-10T06:28:44.337Z,38.4
2018-08-10T06:29:35.251Z,38.5
2018-08-10T06:30:23.778Z,38.6
2018-08-10T06:31:14.297Z,38.8
2018-08-10T06:32:04.008Z,38.9
2018-08-10T06:32:55.239Z,39
2018-08-10T06:33:46.306Z,39.1
2018-08-10T06:34:35.347Z,39.3
2018-08-10T06:35:25.401Z,39.4
2018-08-10T06:36:15.471Z,39.5
2018-08-10T06:37:05.807Z,39.6
2018-08-10T06:37:55.311Z,39.8
2018-08-10T06:38:45.936Z,39.9
2018-08-10T06:39:35.436Z,40
2018-08-10T06:40:25.817Z,40.1
2018-08-10T06:41:14.995Z,40.3
2018-08-10T06:42:05.365Z,40.4
2018-08-10T06:42:56.001Z,40.4
2018-08-10T06:43:46.333Z,40.6
2018-08-10T06:44:36.415Z,40.7
2018-08-10T06:45:25.973Z,40.8
2018-08-10T06:46:14.801Z,40.9
2018-08-10T06:47:06.018Z,41
2018-08-10T06:47:56.135Z,41.1
2018-08-10T06:48:46.796Z,41.3
2018-08-10T06:49:35.946Z,41.4
2018-08-10T06:50:26.882Z,41.5
2018-08-10T06:51:17.849Z,41.6
2018-08-10T06:52:06.989Z,41.7
2018-08-10T06:52:56.168Z,41.8
2018-08-10T06:53:47.143Z,41.9
2018-08-10T06:54:37.137Z,42.1
2018-08-10T06:55:26.942Z,42.1
2018-08-10T06:56:18.100Z,42.3
2018-08-10T06:57:07.372Z,42.4
2018-08-10T06:57:56.854Z,42.5
2018-08-10T06:58:46.442Z,42.6
2018-08-10T06:59:36.791Z,42.7
2018-08-10T07:00:27.462Z,42.8
2018-08-10T07:01:17.417Z,42.9
2018-08-10T07:02:07.719Z,43.1
2018-08-10T07:02:57.571Z,43.2
2018-08-10T07:03:47.609Z,43.3
2018-08-10T07:04:37.119Z,43.4
2018-08-10T07:05:28.083Z,43.5
2018-08-10T07:06:17.557Z,43.6
2018-08-10T07:07:07.607Z,43.8
2018-08-10T07:07:58.477Z,43.9
2018-08-10T07:08:47.756Z,44
2018-08-10T07:09:38.360Z,44.1
2018-08-10T07:10:27.853Z,44.3
2018-08-10T07:11:18.547Z,44.3
2018-08-10T07:12:07.965Z,44.4
2018-08-10T07:12:57.761Z,44.6
2018-08-10T07:13:47.994Z,44.7
2018-08-10T07:14:38.769Z,44.8
2018-08-10T07:15:28.535Z,44.9
2018-08-10T07:16:18.909Z,45
2018-08-10T07:17:08.155Z,45.1
2018-08-10T07:17:57.855Z,45.3
2018-08-10T07:18:48.857Z,45.4
2018-08-10T07:19:38.292Z,45.5
2018-08-10T07:20:28.917Z,45.6
2018-08-10T07:21:18.395Z,45.8
2018-08-10T07:22:08.788Z,45.9
2018-08-10T07:22:59.107Z,46
2018-08-10T07:23:49.533Z,46.1
2018-08-10T07:24:38.960Z,46.3
2018-08-10T07:25:29.010Z,46.3
2018-08-10T07:26:19.647Z,46.4
2018-08-10T07:27:10.005Z,46.6
2018-08-10T07:27:59.563Z,46.7
2018-08-10T07:28:49.567Z,46.8
2018-08-10T07:29:39.863Z,46.9
2018-08-10T07:30:29.977Z,47.1
2018-08-10T07:31:19.724Z,47.2
2018-08-10T07:32:09.782Z,47.4
2018-08-10T07:32:59.659Z,47.4
2018-08-10T07:33:49.912Z,47.6
2018-08-10T07:34:40.315Z,47.7
2018-08-10T07:35:30.331Z,47.8
2018-08-10T07:36:20.167Z,47.9
2018-08-10T07:37:10.176Z,48.1
2018-08-10T07:38:00.254Z,48.2
2018-08-10T07:38:50.057Z,48.3
2018-08-10T07:39:39.549Z,48.4
2018-08-10T07:40:30.501Z,48.6
2018-08-10T07:41:20.537Z,48.7
2018-08-10T07:42:09.732Z,48.8
2018-08-10T07:43:00.698Z,48.9
2018-08-10T07:43:51.018Z,49.1
2018-08-10T07:44:40.575Z,49.2
2018-08-10T07:45:30.391Z,49.3
2018-08-10T07:46:21.076Z,49.4
2018-08-10T07:47:11.006Z,49.6
2018-08-10T07:48:01.350Z,49.7
2018-08-10T07:48:51.140Z,49.8
2018-08-10T07:49:41.195Z,49.9
2018-08-10T07:50:31.001Z,50.1
2018-08-10T07:51:21.053Z,50.2
2018-08-10T07:52:11.714Z,50.3
2018-08-10T07:53:00.232Z,50.4
2018-08-10T07:53:51.791Z,50.6
2018-08-10T07:54:41.591Z,50.7
2018-08-10T07:55:31.146Z,50.8
2018-08-10T07:56:20.909Z,50.9
2018-08-10T07:57:10.994Z,51.1
2018-08-10T07:58:01.531Z,51.1
2018-08-10T07:58:52.218Z,51.3
2018-08-10T07:59:41.674Z,51.4
2018-08-10T08:00:32.003Z,51.5
2018-08-10T08:01:22.443Z,51.6
2018-08-10T08:02:11.283Z,51.8
2018-08-10T08:03:01.936Z,51.9
2018-08-10T08:03:52.297Z,52
2018-08-10T08:04:41.780Z,52.1
2018-08-10T08:05:32.169Z,52.3
2018-08-10T08:07:17.500Z,52.5
2018-08-10T08:08:03.084Z,52.6
2018-08-10T08:08:52.639Z,52.8
2018-08-10T08:09:43.031Z,52.9
2018-08-10T08:10:32.890Z,53
2018-08-10T08:11:22.834Z,53.1
2018-08-10T08:12:13.199Z,53.3
2018-08-10T08:13:02.827Z,53.4
2018-08-10T08:13:54.117Z,53.4
2018-08-10T08:14:42.294Z,53.6
2018-08-10T08:15:32.632Z,53.7
2018-08-10T08:16:22.698Z,53.8
2018-08-10T08:17:13.639Z,53.9
2018-08-10T08:18:03.624Z,54.1
2018-08-10T08:18:52.899Z,54.2
2018-08-10T08:19:44.864Z,54.3
2018-08-10T08:20:33.607Z,54.4
2018-08-10T08:21:23.370Z,54.5
2018-08-10T08:22:13.783Z,54.6
2018-08-10T08:23:03.528Z,54.8
2018-08-10T08:23:53.382Z,54.9
2018-08-10T08:24:43.612Z,54.9
2018-08-10T08:25:33.234Z,55.1
2018-08-10T08:26:24.386Z,55.2
2018-08-10T08:27:15.197Z,55.3
2018-08-10T08:28:04.229Z,55.4
2018-08-10T08:28:53.952Z,55.6
2018-08-10T08:29:44.052Z,55.6
2018-08-10T08:30:34.397Z,55.8
2018-08-10T08:31:23.896Z,55.9
2018-08-10T08:32:13.742Z,56
2018-08-10T08:33:04.818Z,56.1
2018-08-10T08:33:54.936Z,56.2
2018-08-10T08:34:46.039Z,56.3
2018-08-10T08:35:33.291Z,56.4
2018-08-10T08:36:24.849Z,56.5
2018-08-10T08:37:14.707Z,56.6
2018-08-10T08:38:05.277Z,56.7
2018-08-10T08:38:55.001Z,56.8
2018-08-10T08:39:45.083Z,56.9
2018-08-10T08:40:34.878Z,57.1
2018-08-10T08:41:24.342Z,57.1
2018-08-10T08:42:14.973Z,57.3
2018-08-10T08:43:05.390Z,57.4
2018-08-10T08:43:55.383Z,57.4
2018-08-10T08:44:44.931Z,57.4
2018-08-10T08:45:35.996Z,57.4
2018-08-10T08:46:29.006Z,57.6
2018-08-10T08:47:15.648Z,57.5
2018-08-10T08:48:05.737Z,57.4
2018-08-10T08:48:55.526Z,57.1
2018-08-10T08:49:45.085Z,56.9
2018-08-10T08:50:35.067Z,56.7
2018-08-10T08:51:26.303Z,56.7
2018-08-10T08:52:16.371Z,56.9
2018-08-10T08:53:05.850Z,57.1
2018-08-10T08:53:56.633Z,57.1
2018-08-10T08:54:46.643Z,57
2018-08-10T08:55:36.628Z,56.7
2018-08-10T08:56:25.816Z,56.5
2018-08-10T08:57:17.327Z,56.4
2018-08-10T08:58:06.522Z,56.4
2018-08-10T08:58:56.574Z,56.4
2018-08-10T08:59:46.642Z,56.3
2018-08-10T09:00:36.708Z,56.2
2018-08-10T09:01:26.515Z,56.1
2018-08-10T09:02:16.814Z,56.1
2018-08-10T09:03:06.606Z,56.1
2018-08-10T09:03:56.392Z,56.5
2018-08-10T09:21:13.538Z,56.8
2018-08-10T09:22:04.094Z,56.6
2018-08-10T09:22:53.660Z,56.6
2018-08-10T09:23:43.951Z,56.6
2018-08-10T09:24:34.272Z,57
2018-08-10T09:25:23.855Z,57.4
2018-08-10T09:26:14.110Z,57.5
2018-08-10T09:27:05.514Z,57.3
2018-08-10T09:27:54.592Z,57.1
2018-08-10T09:28:44.590Z,57
2018-08-10T09:29:34.917Z,56.9
2018-08-10T09:30:24.470Z,56.9
2018-08-10T09:31:14.319Z,56.8
2018-08-10T09:32:04.898Z,56.7
2018-08-10T09:32:54.545Z,56.5
2018-08-10T09:33:44.819Z,56.5
2018-08-10T09:34:35.384Z,56.6
2018-08-10T09:35:25.113Z,56.8
2018-08-10T09:36:15.491Z,56.9
2018-08-10T09:37:05.529Z,56.8
2018-08-10T09:37:55.347Z,56.5
2018-08-10T09:38:45.492Z,56.3
2018-08-10T09:39:35.144Z,56.1
2018-08-10T09:40:25.435Z,56.1
2018-08-10T09:41:15.268Z,56.3
2018-08-10T09:42:06.046Z,56.6
2018-08-10T09:42:55.560Z,56.9
2018-08-10T09:44:34.716Z,57.4
2018-08-10T09:45:25.474Z,57.4
2018-08-10T09:46:15.963Z,57.5
2018-08-10T09:47:05.503Z,57.6
2018-08-10T09:47:55.908Z,57.8
2018-08-10T09:48:45.895Z,58
2018-08-10T09:49:36.265Z,58.2
2018-08-10T09:50:26.329Z,58.4
2018-08-10T09:51:16.607Z,58.4
2018-08-10T09:52:56.772Z,58.7
2018-08-10T09:53:46.808Z,58.8
2018-08-10T09:54:36.375Z,58.9
2018-08-10T09:55:26.682Z,59
2018-08-10T09:56:16.155Z,59.1
2018-08-10T09:57:06.525Z,59.2
2018-08-10T09:57:57.185Z,59.3
2018-08-10T09:58:46.154Z,59.4
2018-08-10T09:59:36.701Z,59.5
2018-08-10T10:00:27.084Z,59.6
2018-08-10T10:01:16.896Z,59.6
2018-08-10T10:02:07.237Z,59.8
2018-08-10T10:02:57.279Z,59.8
2018-08-10T10:03:47.622Z,59.9
2018-08-10T10:04:36.856Z,59.9
2018-08-10T10:05:27.770Z,60.1
2018-08-10T10:06:16.761Z,60.1
2018-08-10T10:07:07.896Z,60.1
2018-08-10T10:07:57.379Z,60.3
2018-08-10T10:08:47.748Z,60.3
2018-08-10T10:09:37.933Z,60.4
2018-08-10T10:10:27.587Z,60.4
2018-08-10T10:11:18.181Z,60.5
2018-08-10T10:12:08.020Z,60.6
2018-08-10T10:12:58.060Z,60.6
2018-08-10T10:13:48.404Z,60.6
2018-08-10T10:14:38.279Z,60.7
2018-08-10T10:15:27.783Z,60.8
2018-08-10T10:16:18.711Z,60.9
2018-08-10T10:17:08.518Z,60.9
2018-08-10T10:17:59.107Z,61
2018-08-10T10:18:48.647Z,61
2018-08-10T10:19:37.798Z,61.1
2018-08-10T10:20:28.308Z,61.2
2018-08-10T10:21:19.147Z,61.3
2018-08-10T10:22:08.887Z,61.3
2018-08-10T10:22:59.310Z,61.3
2018-08-10T10:23:48.703Z,61.4
2018-08-10T10:24:39.054Z,61.4
2018-08-10T10:25:28.829Z,61.5
2018-08-10T10:26:19.209Z,61.6
2018-08-10T10:27:09.799Z,61.6
2018-08-10T10:27:58.621Z,61.7
2018-08-10T10:28:48.803Z,61.8
2018-08-10T10:29:39.467Z,61.8
2018-08-10T10:30:29.553Z,61.8
2018-08-10T10:31:19.613Z,61.9
2018-08-10T10:32:09.072Z,61.9
2018-08-10T10:32:59.510Z,62
2018-08-10T10:33:49.783Z,62.1
2018-08-10T10:34:40.164Z,62.1
2018-08-10T10:35:30.118Z,62.2
2018-08-10T10:36:20.186Z,62.3
2018-08-10T10:37:09.967Z,62.3
2018-08-10T10:38:00.043Z,62.4
2018-08-10T10:38:48.744Z,62.4
2018-08-10T10:39:40.432Z,62.4
2018-08-10T10:40:30.210Z,62.5
2018-08-10T10:41:20.491Z,62.6
2018-08-10T10:42:10.138Z,62.6
2018-08-10T10:43:00.709Z,62.7
2018-08-10T10:43:50.240Z,62.7
2018-08-10T10:44:39.727Z,62.8
2018-08-10T10:45:30.639Z,62.8
2018-08-10T10:46:20.981Z,62.9
2018-08-10T10:47:11.032Z,62.9
2018-08-10T10:48:00.526Z,63
2018-08-10T10:48:52.507Z,63.1
2018-08-10T10:49:39.838Z,63.1
2018-08-10T10:50:31.024Z,63.1
2018-08-10T10:51:20.780Z,63.2
2018-08-10T10:52:11.145Z,63.3
2018-08-10T10:53:00.958Z,63.3
2018-08-10T10:53:51.502Z,63.4
2018-08-10T10:54:41.026Z,63.4
2018-08-10T10:55:31.556Z,63.4
2018-08-10T10:56:21.651Z,63.5
2018-08-10T10:57:11.515Z,63.6
2018-08-10T10:58:01.583Z,63.6
2018-08-10T10:58:51.394Z,63.6
2018-08-10T10:59:41.433Z,63.7
2018-08-10T11:00:31.222Z,63.7
2018-08-10T11:01:22.111Z,63.8
2018-08-10T11:02:11.888Z,63.8
2018-08-10T11:03:02.253Z,63.9
2018-08-10T11:03:51.743Z,63.9
2018-08-10T11:04:42.052Z,63.9
2018-08-10T11:05:31.959Z,64
2018-08-10T11:06:23.165Z,64.1
2018-08-10T11:07:12.554Z,64.1
2018-08-10T11:08:02.369Z,64.2
2018-08-10T11:08:52.374Z,64.3
2018-08-10T11:09:42.449Z,64.3
2018-08-10T11:10:32.531Z,64.3
2018-08-10T11:11:22.574Z,64.4
2018-08-10T11:12:12.924Z,64.4
2018-08-10T11:13:02.469Z,64.4
2018-08-10T11:13:52.523Z,64.4
2018-08-10T11:14:42.318Z,64.5
2018-08-10T11:15:32.969Z,64.6
2018-08-10T11:16:22.701Z,64.6
2018-08-10T11:17:13.048Z,64.6
2018-08-10T11:18:04.212Z,64.4
2018-08-10T11:18:53.249Z,64.4
2018-08-10T11:19:42.724Z,64.4
2018-08-10T11:20:33.393Z,64.4
2018-08-10T11:21:23.435Z,64.4
2018-08-10T11:22:13.521Z,64.4
2018-08-10T11:23:03.288Z,64.4
2018-08-10T11:23:53.741Z,64.5
2018-08-10T11:24:43.708Z,64.5
2018-08-10T11:25:34.324Z,64.5
2018-08-10T11:26:24.145Z,64.4
2018-08-10T11:27:13.065Z,64.5
2018-08-10T11:28:04.242Z,64.6
2018-08-10T11:28:53.734Z,64.6
2018-08-10T11:29:43.800Z,64.6
2018-08-10T11:30:34.465Z,64.7
2018-08-10T11:31:23.953Z,64.8
2018-08-10T11:32:13.842Z,64.8
2018-08-10T11:33:04.677Z,64.9
2018-08-10T11:33:54.132Z,64.9
2018-08-10T11:34:44.475Z,64.9
2018-08-10T11:35:34.004Z,65
2018-08-10T11:36:24.368Z,64.8
2018-08-10T11:37:14.956Z,64.7
2018-08-10T11:38:04.440Z,64.7
2018-08-10T11:38:54.816Z,64.7
2018-08-10T11:39:44.360Z,64.7
2018-08-10T11:40:34.515Z,64.8
2018-08-10T11:41:24.869Z,64.8
2018-08-10T11:42:15.115Z,64.8
2018-08-10T11:43:05.148Z,64.8
2018-08-10T11:43:55.175Z,64.8
2018-08-10T11:44:45.548Z,64.9
2018-08-10T11:45:35.076Z,64.9
2018-08-10T11:46:25.624Z,65
2018-08-10T11:47:15.454Z,65.1
2018-08-10T11:48:05.507Z,65.1
2018-08-10T11:48:55.615Z,65.1
2018-08-10T11:49:45.379Z,65.2
2018-08-10T11:50:34.866Z,65.3
2018-08-10T11:51:25.761Z,65.3
2018-08-10T11:52:15.799Z,65.3
2018-08-10T11:53:05.616Z,65.4
2018-08-10T11:53:55.983Z,65.4
2018-08-10T11:54:46.023Z,65.4
2018-08-10T11:55:35.894Z,65.5
2018-08-10T11:56:26.273Z,65.5
2018-08-10T11:57:16.093Z,65.6
2018-08-10T11:58:06.081Z,65.6
2018-08-10T11:58:56.662Z,65.6
2018-08-10T11:59:45.892Z,65.6
2018-08-10T12:00:35.997Z,65.7
2018-08-10T12:01:26.284Z,65.7
2018-08-10T12:02:16.343Z,65.7
2018-08-10T12:03:07.094Z,65.7
2018-08-10T12:03:56.187Z,65.8
2018-08-10T12:04:46.539Z,65.8
2018-08-10T12:05:36.632Z,65.8
2018-08-10T12:06:26.965Z,65.8
2018-08-10T12:07:17.062Z,65.9
2018-08-10T12:08:07.376Z,65.9
2018-08-10T12:08:57.439Z,65.9
2018-08-10T12:09:47.182Z,65.9
2018-08-10T12:10:37.569Z,65.9
2018-08-10T12:11:26.491Z,66
2018-08-10T12:12:17.082Z,66
2018-08-10T12:13:07.464Z,66.1
2018-08-10T12:13:57.509Z,66.1
2018-08-10T12:14:47.333Z,66.1
2018-08-10T12:15:37.911Z,66.1
2018-08-10T12:16:27.726Z,66.1
2018-08-10T12:17:17.228Z,66.2
2018-08-10T12:18:07.580Z,66.2
2018-08-10T12:18:58.135Z,66.3
2018-08-10T12:19:47.755Z,66.3
2018-08-10T12:20:38.344Z,66.3
2018-08-10T12:21:27.560Z,66.3
2018-08-10T12:22:18.581Z,66.3
2018-08-10T12:23:08.275Z,66.3
2018-08-10T12:23:58.313Z,66.4
2018-08-10T12:24:49.516Z,66.4
2018-08-10T12:25:38.712Z,66.4
2018-08-10T12:26:28.217Z,66.4